Time;durP1;ratioP1;P1;durP2;ratioP2;P2;SDS_P1;SDS_P2;PMS_P1;PMS_P2;Temp;Humidity;BMP_temperature;BMP_pressure;BME280_temperature;BME280_humidity;BME280_pressure;Samples;Min_cycle;Max_cycle;Signal;HPM_P1;HPM_P2
2024/03/17 00:00:35;;;;;;;12.75;5.90;;;;;;;7.50;100.00;101839.97;2080429;28;20431;-63
2024/03/17 00:01:37;;;;;;;10.90;5.37;;;;;;;7.99;100.00;101916.81;2087259;28;20862;-64
2024/03/17 00:02:37;;;;;;;7.53;4.75;;;;;;;8.01;100.00;101914.44;2079639;28;20206;-64
2024/03/17 00:03:38;;;;;;;10.20;5.77;;;;;;;7.99;100.00;101914.81;2083177;28;20196;-64
2024/03/17 00:04:38;;;;;;;10.17;5.07;;;;;;;7.96;100.00;101912.03;2081422;28;20201;-64
2024/03/17 00:05:39;;;;;;;7.43;4.77;;;;;;;7.92;100.00;101916.75;2083692;28;20232;-63
2024/03/17 00:06:39;;;;;;;8.23;5.17;;;;;;;7.93;100.00;101918.31;2084836;28;20194;-63
2024/03/17 00:07:40;;;;;;;8.23;4.70;;;;;;;7.75;100.00;101898.84;2082165;28;20228;-64
2024/03/17 00:08:40;;;;;;;10.73;4.90;;;;;;;6.60;100.00;101713.94;2087278;28;20186;-64
2024/03/17 00:09:41;;;;;;;8.60;5.23;;;;;;;7.83;100.00;101906.03;2081685;28;20234;-64
2024/03/17 00:10:42;;;;;;;9.00;4.97;;;;;;;6.67;100.00;101732.50;2080396;28;20237;-63
2024/03/17 00:11:42;;;;;;;7.60;5.23;;;;;;;7.85;100.00;101908.41;2080335;28;20196;-64
2024/03/17 00:12:43;;;;;;;9.27;5.30;;;;;;;7.82;100.00;101915.50;2079303;28;20608;-64
2024/03/17 00:13:43;;;;;;;11.77;5.43;;;;;;;7.80;100.00;101920.59;2079614;28;20196;-64
2024/03/17 00:14:44;;;;;;;11.10;5.53;;;;;;;7.82;100.00;101912.72;2082130;28;20601;-64
2024/03/17 00:15:45;;;;;;;10.02;4.53;;;;;;;7.81;100.00;101913.09;2081238;28;20914;-63
2024/03/17 00:16:45;;;;;;;8.00;4.37;;;;;;;7.76;100.00;101918.97;2086916;28;20786;-64
2024/03/17 00:17:46;;;;;;;8.70;5.27;;;;;;;7.66;100.00;101905.88;2079718;28;20611;-63
2024/03/17 00:18:46;;;;;;;7.10;5.00;;;;;;;7.66;100.00;101911.41;2089108;28;20576;-63
2024/03/17 00:19:47;;;;;;;7.93;5.00;;;;;;;7.20;100.00;101855.03;2080810;28;20743;-64
2024/03/17 00:20:47;;;;;;;10.83;5.00;;;;;;;7.61;100.00;101915.31;2080653;28;20218;-64
2024/03/17 00:21:50;;;;;;;8.50;5.00;;;;;;;7.55;100.00;101933.41;2083635;28;20555;-64
2024/03/17 00:22:51;;;;;;;9.15;5.25;;;;;;;7.53;100.00;101916.41;2083364;28;20190;-64
2024/03/17 00:23:51;;;;;;;10.47;5.20;;;;;;;6.72;100.00;101787.25;2080328;28;20200;-63
2024/03/17 00:24:52;;;;;;;9.47;5.80;;;;;;;7.46;100.00;101905.34;2080079;28;20187;-64
2024/03/17 00:25:54;;;;;;;15.10;5.77;;;;;;;7.47;100.00;101915.19;2081176;28;20234;-64
2024/03/17 00:26:55;;;;;;;8.65;5.13;;;;;;;7.48;100.00;101914.00;2080087;28;20205;-64
2024/03/17 00:27:57;;;;;;;7.50;5.23;;;;;;;7.45;100.00;101908.47;2082265;28;20201;-64
2024/03/17 00:28:58;;;;;;;12.57;5.63;;;;;;;7.44;100.00;101909.66;2087043;28;20274;-64
2024/03/17 00:29:58;;;;;;;7.97;5.00;;;;;;;7.40;100.00;101909.63;2083737;28;20195;-64
2024/03/17 00:30:59;;;;;;;11.37;7.00;;;;;;;7.40;100.00;101911.56;2083738;28;20274;-63
2024/03/17 00:31:59;;;;;;;16.63;7.93;;;;;;;6.72;100.00;101806.53;2084437;28;20655;-64
2024/03/17 00:33:00;;;;;;;11.53;7.20;;;;;;;7.33;100.00;101912.28;2079656;28;20296;-64
2024/03/17 00:34:01;;;;;;;16.03;8.00;;;;;;;6.61;100.00;101819.41;2083939;28;20205;-64
2024/03/17 00:35:01;;;;;;;9.30;5.60;;;;;;;7.35;100.00;101917.44;2081483;28;20280;-63
2024/03/17 00:36:02;;;;;;;12.33;5.87;;;;;;;7.38;100.00;101911.94;2080373;28;20264;-63
2024/03/17 00:37:03;;;;;;;11.90;6.37;;;;;;;7.39;100.00;101912.75;2082206;28;20189;-64
2024/03/17 00:38:09;;;;;;;12.90;6.20;;;;;;;7.42;100.00;101914.72;2081814;28;20660;-64
2024/03/17 00:39:10;;;;;;;11.63;6.78;;;;;;;7.40;100.00;101908.81;2080324;28;20194;-64
2024/03/17 00:40:11;;;;;;;14.60;6.53;;;;;;;7.39;100.00;101899.72;2087541;28;20646;-64
2024/03/17 00:41:12;;;;;;;15.73;6.38;;;;;;;7.39;100.00;101908.00;2085844;28;20571;-63
2024/03/17 00:42:12;;;;;;;9.43;5.93;;;;;;;7.39;100.00;101904.47;2085441;28;20288;-63
2024/03/17 00:43:13;;;;;;;10.77;6.10;;;;;;;7.37;100.00;101898.53;2081609;28;20230;-64
2024/03/17 00:44:13;;;;;;;9.00;6.10;;;;;;;7.39;100.00;101910.00;2079984;28;20190;-63
2024/03/17 00:45:15;;;;;;;10.70;5.73;;;;;;;7.21;100.00;101893.28;2082103;28;20186;-64
2024/03/17 00:46:15;;;;;;;8.57;5.47;;;;;;;7.41;100.00;101899.34;2079427;28;20193;-64
2024/03/17 00:47:17;;;;;;;7.45;4.95;;;;;;;7.41;100.00;101905.69;2078958;28;20197;-64
2024/03/17 00:48:17;;;;;;;9.07;5.57;;;;;;;7.42;100.00;101898.19;2084158;28;20220;-63
2024/03/17 00:49:18;;;;;;;11.00;5.83;;;;;;;7.41;100.00;101907.63;2079135;28;20193;-63
2024/03/17 00:50:19;;;;;;;9.43;5.87;;;;;;;7.42;100.00;101896.22;2085011;28;20182;-63
2024/03/17 00:51:19;;;;;;;8.20;5.30;;;;;;;7.44;100.00;101902.16;2080088;28;20197;-64
2024/03/17 00:52:20;;;;;;;9.80;5.47;;;;;;;7.44;100.00;101902.16;2079476;28;20197;-64
2024/03/17 00:53:21;;;;;;;9.43;4.90;;;;;;;7.43;100.00;101897.81;2082145;28;20651;-64
2024/03/17 00:54:21;;;;;;;6.68;4.13;;;;;;;7.44;100.00;101902.16;2079852;28;20229;-64
2024/03/17 00:55:22;;;;;;;8.67;4.70;;;;;;;7.43;100.00;101900.56;2086404;28;20192;-64
2024/03/17 00:56:22;;;;;;;7.93;5.43;;;;;;;7.44;100.00;101893.09;2083230;28;20221;-64
2024/03/17 00:57:23;;;;;;;7.23;4.67;;;;;;;7.31;100.00;101906.38;2085902;28;20191;-64
2024/03/17 00:58:24;;;;;;;8.88;6.05;;;;;;;7.44;100.00;101893.88;2084962;28;20678;-64
2024/03/17 00:59:25;;;;;;;12.63;5.97;;;;;;;7.44;100.00;101891.13;2080205;28;20574;-64
2024/03/17 01:00:25;;;;;;;10.90;5.40;;;;;;;6.22;100.00;101703.34;2086111;28;20186;-63
2024/03/17 01:01:26;;;;;;;7.70;4.97;;;;;;;7.46;100.00;101897.06;2082991;28;20184;-63
2024/03/17 01:02:26;;;;;;;8.77;5.33;;;;;;;7.45;100.00;101897.44;2082922;28;20665;-64
2024/03/17 01:03:29;;;;;;;8.27;5.20;;;;;;;7.46;100.00;101896.25;2081623;28;20190;-64
2024/03/17 01:04:33;;;;;;;7.82;4.90;;;;;;;7.47;100.00;101884.03;2079674;28;20215;-64
2024/03/17 01:05:34;;;;;;;9.23;5.30;;;;;;;7.47;100.00;101893.13;2081830;28;20228;-63
2024/03/17 01:06:34;;;;;;;11.50;5.73;;;;;;;6.29;100.00;101708.91;2083585;28;20204;-64
2024/03/17 01:07:35;;;;;;;10.17;5.37;;;;;;;7.47;100.00;101889.56;2078945;28;20309;-64
2024/03/17 01:08:35;;;;;;;9.80;5.73;;;;;;;7.49;100.00;101892.75;2079425;28;20683;-64
2024/03/17 01:09:36;;;;;;;11.67;7.60;;;;;;;7.47;100.00;101892.31;2080915;28;20184;-64
2024/03/17 01:10:38;;;;;;;8.63;5.23;;;;;;;7.47;100.00;101890.38;2081519;28;20185;-63
2024/03/17 01:11:38;;;;;;;10.35;5.57;;;;;;;7.47;100.00;101890.38;2079418;28;20217;-64
2024/03/17 01:12:39;;;;;;;10.57;5.90;;;;;;;7.52;100.00;101891.97;2080491;28;20191;-63
2024/03/17 01:13:41;;;;;;;8.27;5.83;;;;;;;7.46;100.00;101880.50;2082008;28;20547;-63
2024/03/17 01:14:41;;;;;;;11.25;6.22;;;;;;;7.48;100.00;101885.66;2082958;28;20205;-64
2024/03/17 01:15:42;;;;;;;9.67;5.30;;;;;;;7.48;100.00;101880.91;2079585;28;20200;-64
2024/03/17 01:16:43;;;;;;;8.90;5.23;;;;;;;6.29;100.00;101695.16;2083680;28;20222;-64
2024/03/17 01:17:43;;;;;;;9.20;5.00;;;;;;;7.48;100.00;101880.13;2083525;28;20195;-64
2024/03/17 01:18:45;;;;;;;8.73;5.43;;;;;;;7.49;100.00;101885.25;2081594;28;20281;-64
2024/03/17 01:19:46;;;;;;;8.63;5.38;;;;;;;7.43;100.00;101875.75;2080224;28;20572;-64
2024/03/17 01:20:46;;;;;;;10.87;5.90;;;;;;;7.41;100.00;101871.78;2084283;28;20198;-64
2024/03/17 01:21:47;;;;;;;7.80;4.63;;;;;;;7.46;100.00;101887.97;2079664;28;20700;-64
2024/03/17 01:22:47;;;;;;;7.57;5.27;;;;;;;7.44;100.00;101887.56;2079190;28;20708;-63
2024/03/17 01:23:49;;;;;;;9.70;5.00;;;;;;;7.45;100.00;101891.91;2079589;28;20205;-64
2024/03/17 01:24:49;;;;;;;10.07;5.70;;;;;;;7.44;100.00;101882.06;2079453;28;20285;-63
2024/03/17 01:25:50;;;;;;;8.07;5.40;;;;;;;7.29;100.00;101867.34;2082005;28;20207;-63
2024/03/17 01:26:51;;;;;;;7.80;5.70;;;;;;;7.39;100.00;101885.94;2079458;28;20272;-64
2024/03/17 01:27:54;;;;;;;10.67;5.97;;;;;;;7.38;100.00;101889.09;2079803;28;20220;-64
2024/03/17 01:28:54;;;;;;;10.82;6.07;;;;;;;7.33;100.00;101887.47;2078594;28;20221;-64
2024/03/17 01:29:55;;;;;;;9.87;5.73;;;;;;;7.27;100.00;101886.22;2079716;28;20196;-63
2024/03/17 01:30:55;;;;;;;11.77;6.17;;;;;;;7.27;100.00;101882.66;2079625;28;20192;-64
2024/03/17 01:31:56;;;;;;;11.40;5.60;;;;;;;7.21;100.00;101881.44;2078555;28;20876;-64
2024/03/17 01:32:56;;;;;;;11.83;5.63;;;;;;;7.31;100.00;101886.25;2083459;28;20768;-64
2024/03/17 01:33:57;;;;;;;10.40;6.17;;;;;;;7.33;100.00;101884.72;2080811;28;20659;-64
2024/03/17 01:34:57;;;;;;;11.50;5.93;;;;;;;7.33;100.00;101886.69;2079039;28;20260;-64
2024/03/17 01:35:58;;;;;;;10.20;6.17;;;;;;;7.22;100.00;101870.03;2080321;28;20186;-64
2024/03/17 01:36:58;;;;;;;13.53;6.00;;;;;;;7.32;100.00;101885.88;2079517;28;20199;-64
2024/03/17 01:37:59;;;;;;;9.00;5.30;;;;;;;7.31;100.00;101878.00;2078919;28;20193;-63
2024/03/17 01:39:00;;;;;;;9.73;5.37;;;;;;;7.33;100.00;101875.66;2079900;28;20190;-63
2024/03/17 01:40:01;;;;;;;7.53;5.30;;;;;;;7.29;100.00;101883.09;2079213;28;20193;-64
2024/03/17 01:41:02;;;;;;;13.82;5.82;;;;;;;7.28;100.00;101876.78;2083415;28;20204;-64
2024/03/17 01:42:03;;;;;;;12.75;6.70;;;;;;;7.13;100.00;101855.00;2085076;28;20240;-64
2024/03/17 01:43:04;;;;;;;8.88;6.05;;;;;;;7.29;100.00;101883.09;2079419;28;20658;-64
2024/03/17 01:44:04;;;;;;;9.60;5.57;;;;;;;7.29;100.00;101877.59;2082941;28;20193;-64
2024/03/17 01:45:17;;;;;;;12.30;6.70;;;;;;;7.28;100.00;101885.06;2084355;28;20444;-64
2024/03/17 01:46:18;;;;;;;9.70;5.45;;;;;;;6.47;100.00;101758.66;2083850;28;20226;-65
2024/03/17 01:47:19;;;;;;;13.80;6.30;;;;;;;7.03;100.00;101872.22;2078453;28;20666;-63
2024/03/17 01:48:20;;;;;;;9.90;6.28;;;;;;;7.20;100.00;101877.09;2084182;28;20233;-64
2024/03/17 01:49:21;;;;;;;11.10;6.23;;;;;;;7.11;100.00;101866.38;2079645;28;20680;-63
2024/03/17 01:50:24;;;;;;;12.15;5.82;;;;;;;7.02;100.00;101854.09;2078060;28;20921;-64
2024/03/17 01:51:25;;;;;;;9.50;5.50;;;;;;;7.01;100.00;101853.28;2079473;28;20272;-64
2024/03/17 01:52:25;;;;;;;16.47;5.83;;;;;;;7.13;100.00;101879.81;2083093;28;20190;-64
2024/03/17 01:53:27;;;;;;;8.60;5.20;;;;;;;7.13;100.00;101879.81;2082801;28;20186;-63
2024/03/17 01:54:27;;;;;;;9.43;5.95;;;;;;;7.11;100.00;101876.59;2084443;28;20193;-63
2024/03/17 01:55:28;;;;;;;12.47;6.43;;;;;;;5.92;100.00;101699.03;2079017;28;20187;-63
2024/03/17 01:56:29;;;;;;;7.83;4.90;;;;;;;7.11;100.00;101880.16;2081949;28;20198;-64
2024/03/17 01:57:30;;;;;;;7.70;5.05;;;;;;;7.10;100.00;101861.25;2081942;28;20187;-63
2024/03/17 01:58:30;;;;;;;11.17;5.47;;;;;;;7.10;100.00;101877.78;2082789;28;20199;-64
2024/03/17 01:59:31;;;;;;;11.13;5.93;;;;;;;7.08;100.00;101871.88;2082107;28;20199;-63
2024/03/17 02:00:33;;;;;;;9.30;5.80;;;;;;;7.06;100.00;101872.25;2081051;28;20219;-63
2024/03/17 02:01:34;;;;;;;10.32;5.90;;;;;;;6.17;100.00;101736.72;2079266;28;20373;-63
2024/03/17 02:02:35;;;;;;;10.03;5.37;;;;;;;5.98;100.00;101712.09;2081565;28;20188;-64
2024/03/17 02:03:36;;;;;;;12.85;5.53;;;;;;;7.05;100.00;101883.63;2083860;28;20176;-64
2024/03/17 02:04:36;;;;;;;10.20;5.80;;;;;;;7.05;100.00;101883.63;2080680;28;20667;-63
2024/03/17 02:05:40;;;;;;;12.43;6.17;;;;;;;7.03;100.00;101870.22;2082040;28;20213;-63
2024/03/17 02:06:41;;;;;;;8.75;5.40;;;;;;;7.03;100.00;101875.75;2080572;28;20202;-64
2024/03/17 02:07:42;;;;;;;8.73;5.70;;;;;;;6.90;100.00;101857.09;2078985;28;20645;-64
2024/03/17 02:08:54;;;;;;;10.47;5.77;;;;;;;7.02;100.00;101874.16;2079182;28;20258;-63
2024/03/17 02:09:56;;;;;;;10.98;6.18;;;;;;;7.06;100.00;101874.19;2079418;28;20200;-64
2024/03/17 02:10:57;;;;;;;9.23;6.20;;;;;;;6.98;100.00;101867.81;2086032;28;20195;-63
2024/03/17 02:11:57;;;;;;;10.87;5.77;;;;;;;7.07;100.00;101875.81;2085030;28;20188;-63
2024/03/17 02:12:59;;;;;;;13.83;6.30;;;;;;;7.10;100.00;101873.06;2079267;28;20650;-64
2024/03/17 02:14:01;;;;;;;10.15;6.28;;;;;;;7.14;100.00;101876.66;2083709;28;20190;-63
2024/03/17 02:15:05;;;;;;;19.95;7.18;;;;;;;7.17;100.00;101875.13;2081877;28;20238;-64
2024/03/17 02:16:05;;;;;;;16.63;6.13;;;;;;;7.16;100.00;101871.56;2079653;28;20198;-64
2024/03/17 02:17:06;;;;;;;16.83;6.27;;;;;;;7.17;100.00;101877.88;2079044;28;20209;-63
2024/03/17 02:18:06;;;;;;;14.27;5.37;;;;;;;7.09;100.00;101865.19;2078724;28;20198;-63
2024/03/17 02:19:07;;;;;;;9.43;5.67;;;;;;;7.13;100.00;101875.06;2085012;28;20652;-64
2024/03/17 02:20:08;;;;;;;14.30;6.40;;;;;;;7.13;100.00;101880.56;2080444;28;20708;-64
2024/03/17 02:21:09;;;;;;;12.03;6.07;;;;;;;7.15;100.00;101875.50;2083305;28;20210;-63
2024/03/17 02:22:16;;;;;;;11.63;6.20;;;;;;;7.16;100.00;101874.31;2083899;28;20649;-64
2024/03/17 02:23:18;;;;;;;15.25;6.47;;;;;;;7.13;100.00;101880.56;2081316;28;20189;-64
2024/03/17 02:24:19;;;;;;;11.68;5.95;;;;;;;7.12;100.00;101889.25;2080984;28;20185;-63
2024/03/17 02:25:19;;;;;;;15.07;5.53;;;;;;;7.08;100.00;101880.13;2081384;28;20486;-64
2024/03/17 02:26:21;;;;;;;10.63;5.40;;;;;;;6.15;100.00;101747.28;2086328;28;20634;-64
2024/03/17 02:27:21;;;;;;;12.45;5.90;;;;;;;6.79;100.00;101881.81;2081019;28;20209;-64
2024/03/17 02:28:22;;;;;;;9.93;5.13;;;;;;;7.09;100.00;101879.78;2080933;28;20288;-64
2024/03/17 02:29:22;;;;;;;12.63;6.57;;;;;;;7.10;100.00;101880.53;2079668;28;20209;-64
2024/03/17 02:30:23;;;;;;;13.33;5.73;;;;;;;7.09;100.00;101881.72;2080344;28;20204;-63
2024/03/17 02:31:23;;;;;;;11.50;5.57;;;;;;;7.09;100.00;101877.00;2079522;28;20193;-64
2024/03/17 02:32:25;;;;;;;11.20;5.77;;;;;;;7.07;100.00;101879.34;2082553;28;21276;-63
2024/03/17 02:33:26;;;;;;;12.00;5.85;;;;;;;7.06;100.00;101880.50;2082468;28;20252;-64
2024/03/17 02:34:26;;;;;;;13.70;6.23;;;;;;;7.08;100.00;101883.66;2084544;28;20219;-63
2024/03/17 02:35:26;;;;;;;7.93;5.13;;;;;;;7.08;100.00;101877.38;2079401;28;20281;-64
2024/03/17 02:36:27;;;;;;;10.93;6.00;;;;;;;7.05;100.00;101884.44;2079359;28;20279;-64
2024/03/17 02:37:27;;;;;;;10.03;5.57;;;;;;;7.09;100.00;101887.22;2084242;28;20194;-63
2024/03/17 02:39:47;;;;;;;10.32;5.70;;;;;;;7.10;100.00;101877.78;2082804;28;20198;-64
2024/03/17 02:40:48;;;;;;;10.93;5.90;;;;;;;7.09;100.00;101877.00;2081009;28;20195;-63
2024/03/17 02:41:49;;;;;;;10.23;5.10;;;;;;;7.10;100.00;101883.31;2079468;28;20296;-64
2024/03/17 02:42:50;;;;;;;11.15;5.43;;;;;;;7.10;100.00;101880.53;2085711;28;20577;-64
2024/03/17 02:43:50;;;;;;;8.75;5.38;;;;;;;7.11;100.00;101882.94;2079516;28;20250;-64
2024/03/17 02:44:51;;;;;;;9.80;5.77;;;;;;;7.13;100.00;101879.81;2083525;28;20201;-64
2024/03/17 02:45:52;;;;;;;10.63;5.77;;;;;;;6.20;100.00;101737.91;2081957;28;20221;-64
2024/03/17 02:46:52;;;;;;;11.00;6.00;;;;;;;7.04;100.00;101862.75;2081571;28;20197;-64
2024/03/17 02:47:53;;;;;;;11.37;6.03;;;;;;;7.17;100.00;101886.91;2077830;28;20196;-63
2024/03/17 02:48:54;;;;;;;12.13;5.50;;;;;;;7.20;100.00;101885.38;2079846;28;20801;-64
2024/03/17 02:49:54;;;;;;;9.75;5.30;;;;;;;7.23;100.00;101887.38;2083476;28;20967;-63
2024/03/17 02:50:55;;;;;;;8.80;5.10;;;;;;;7.24;100.00;101887.00;2080848;28;20654;-63
2024/03/17 02:51:56;;;;;;;9.50;5.88;;;;;;;7.26;100.00;101886.59;2074036;28;20676;-64
2024/03/17 02:52:56;;;;;;;10.63;5.97;;;;;;;7.27;100.00;101889.00;2082230;28;20185;-64
2024/03/17 02:53:59;;;;;;;9.07;5.20;;;;;;;7.27;100.00;101883.47;2078184;28;20790;-64
2024/03/17 02:55:00;;;;;;;9.02;5.43;;;;;;;7.27;100.00;101889.00;2078006;28;20280;-64
2024/03/17 02:56:00;;;;;;;11.33;5.57;;;;;;;6.38;100.00;101741.63;2078918;28;20194;-64
2024/03/17 02:57:02;;;;;;;8.90;5.53;;;;;;;7.29;100.00;101894.91;2082291;28;20277;-64
2024/03/17 02:58:02;;;;;;;9.13;5.18;;;;;;;7.20;100.00;101894.44;2083017;28;20193;-64
2024/03/17 02:59:03;;;;;;;13.63;5.97;;;;;;;7.22;100.00;101894.84;2079082;28;20249;-64
2024/03/17 03:00:05;;;;;;;12.57;5.80;;;;;;;7.17;100.00;101908.97;2078201;28;20210;-63
2024/03/17 03:01:06;;;;;;;13.77;5.75;;;;;;;7.17;100.00;101910.97;2078588;28;20185;-64
2024/03/17 03:02:06;;;;;;;15.93;5.88;;;;;;;7.11;100.00;101884.88;2079432;28;20191;-64
2024/03/17 03:03:07;;;;;;;12.40;6.87;;;;;;;7.27;100.00;101907.50;2079222;28;20189;-64
2024/03/17 03:04:07;;;;;;;11.03;5.97;;;;;;;7.27;100.00;101896.47;2080874;28;20202;-64
2024/03/17 03:05:08;;;;;;;11.67;5.60;;;;;;;7.02;100.00;101874.16;2082683;28;20222;-64
2024/03/17 03:06:09;;;;;;;9.53;5.30;;;;;;;7.24;100.00;101919.28;2078474;28;20222;-64
2024/03/17 03:07:09;;;;;;;9.87;6.00;;;;;;;7.32;100.00;101890.59;2078613;28;20193;-64
2024/03/17 03:08:10;;;;;;;11.90;6.20;;;;;;;7.35;100.00;101889.84;2082821;28;20185;-63
2024/03/17 03:09:14;;;;;;;8.43;5.43;;;;;;;7.39;100.00;101890.69;2086880;28;20188;-63
2024/03/17 03:10:15;;;;;;;10.52;5.68;;;;;;;7.43;100.00;101891.53;2081726;28;20586;-64
2024/03/17 03:11:17;;;;;;;8.60;5.33;;;;;;;7.49;100.00;101890.00;2081292;28;20181;-64
2024/03/17 03:12:17;;;;;;;9.02;5.20;;;;;;;7.50;100.00;101897.09;2080107;28;20205;-64
2024/03/17 03:13:19;;;;;;;8.53;5.47;;;;;;;7.52;100.00;101894.72;2082489;28;20606;-64
2024/03/17 03:14:20;;;;;;;13.30;5.68;;;;;;;7.54;100.00;101901.44;2079796;28;20196;-63
2024/03/17 03:15:21;;;;;;;9.50;5.30;;;;;;;7.44;100.00;101891.13;2079894;28;20706;-64
2024/03/17 03:16:21;;;;;;;10.83;5.57;;;;;;;7.47;100.00;101895.06;2080328;28;20551;-64
2024/03/17 03:17:22;;;;;;;10.20;5.47;;;;;;;7.51;100.00;101898.66;2082172;28;20190;-63
2024/03/17 03:18:22;;;;;;;9.77;5.63;;;;;;;7.53;100.00;101890.81;2079634;28;20676;-64
2024/03/17 03:19:23;;;;;;;8.40;5.40;;;;;;;7.59;100.00;101894.81;2081136;28;20210;-64
2024/03/17 03:20:23;;;;;;;9.50;5.80;;;;;;;7.62;100.00;101889.31;2080313;28;20212;-63
2024/03/17 03:21:24;;;;;;;10.73;5.53;;;;;;;7.66;100.00;101881.88;2083199;28;20201;-64
2024/03/17 03:22:24;;;;;;;11.10;5.40;;;;;;;7.73;100.00;101883.88;2080254;28;20209;-64
2024/03/17 03:23:25;;;;;;;9.57;5.47;;;;;;;7.76;100.00;101885.88;2084761;28;20180;-64
2024/03/17 03:24:26;;;;;;;19.50;5.77;;;;;;;7.77;100.00;101887.44;2079373;28;20216;-63
2024/03/17 03:25:27;;;;;;;9.68;5.20;;;;;;;7.79;100.00;101893.41;2082873;28;20328;-64
2024/03/17 03:26:28;;;;;;;9.53;5.43;;;;;;;7.81;100.00;101893.78;2080440;28;20178;-63
2024/03/17 03:27:29;;;;;;;12.38;6.30;;;;;;;6.81;100.00;101727.91;2080361;28;20677;-64
2024/03/17 03:28:31;;;;;;;10.80;5.53;;;;;;;7.82;100.00;101878.81;2080837;28;20762;-64
2024/03/17 03:29:32;;;;;;;10.30;5.60;;;;;;;7.89;100.00;101898.19;2081915;28;20188;-63
2024/03/17 03:30:36;;;;;;;10.33;5.63;;;;;;;6.95;100.00;101763.06;2082539;28;20484;-64
2024/03/17 03:31:40;;;;;;;10.57;5.93;;;;;;;7.00;100.00;101770.97;2082932;28;20187;-64
2024/03/17 03:32:42;;;;;;;10.02;5.50;;;;;;;7.79;100.00;101901.66;2082584;28;20242;-63
2024/03/17 03:33:42;;;;;;;11.23;6.18;;;;;;;7.81;100.00;101904.84;2080786;28;20190;-64
2024/03/17 03:34:43;;;;;;;8.33;5.27;;;;;;;7.78;100.00;101897.31;2082161;28;20685;-64
2024/03/17 03:35:44;;;;;;;9.47;5.90;;;;;;;7.57;100.00;101872.31;2085230;28;20184;-63
2024/03/17 03:36:45;;;;;;;11.00;6.10;;;;;;;7.73;100.00;101898.47;2082532;28;20181;-64
2024/03/17 03:37:46;;;;;;;9.55;5.47;;;;;;;7.71;100.00;101895.31;2086606;28;20623;-63
2024/03/17 03:38:47;;;;;;;10.70;5.78;;;;;;;7.66;100.00;101894.84;2081066;28;20232;-63
2024/03/17 03:39:48;;;;;;;9.20;5.83;;;;;;;7.71;100.00;101894.50;2081199;28;20230;-64
2024/03/17 03:40:49;;;;;;;8.80;5.07;;;;;;;7.00;100.00;101788.31;2087325;28;20739;-64
2024/03/17 03:41:50;;;;;;;13.67;6.10;;;;;;;7.78;100.00;101902.81;2082200;28;20572;-64
2024/03/17 03:42:50;;;;;;;13.90;6.40;;;;;;;7.81;100.00;101907.59;2082413;28;20629;-64
2024/03/17 03:43:51;;;;;;;15.77;7.00;;;;;;;7.85;100.00;101902.91;2085283;28;20231;-64
2024/03/17 03:44:51;;;;;;;12.10;6.37;;;;;;;7.87;100.00;101906.84;2080333;28;20628;-63
2024/03/17 03:45:52;;;;;;;9.90;6.10;;;;;;;7.87;100.00;101908.81;2085089;28;20206;-64
2024/03/17 03:46:56;;;;;;;10.27;5.60;;;;;;;7.89;100.00;101901.75;2080658;28;20222;-63
2024/03/17 03:47:57;;;;;;;12.50;5.70;;;;;;;7.75;100.00;101874.03;2080724;28;20187;-64
2024/03/17 03:48:57;;;;;;;10.67;6.07;;;;;;;7.98;100.00;101912.44;2080287;28;20450;-64
2024/03/17 03:49:58;;;;;;;14.07;6.10;;;;;;;7.97;100.00;101914.44;2084736;28;20218;-64
2024/03/17 03:50:59;;;;;;;9.20;4.97;;;;;;;7.99;100.00;101912.06;2081076;28;20190;-64
2024/03/17 03:51:59;;;;;;;10.60;5.60;;;;;;;6.94;100.00;101739.44;2083460;28;20196;-64
2024/03/17 03:53:00;;;;;;;13.30;6.37;;;;;;;7.98;100.00;101912.44;2085197;28;20195;-63
2024/03/17 03:54:00;;;;;;;9.60;5.30;;;;;;;8.00;100.00;101918.38;2084351;28;20264;-64
2024/03/17 03:55:01;;;;;;;10.87;6.10;;;;;;;7.22;100.00;101792.06;2080023;28;20188;-64
2024/03/17 03:56:10;;;;;;;11.17;6.00;;;;;;;8.04;100.00;101914.47;2083954;28;20192;-64
2024/03/17 03:57:10;;;;;;;7.60;4.75;;;;;;;8.12;100.00;101913.34;2080910;28;20193;-63
2024/03/17 03:58:12;;;;;;;8.43;5.33;;;;;;;8.05;100.00;101898.72;2087460;28;20194;-64
2024/03/17 03:59:13;;;;;;;8.23;5.10;;;;;;;8.16;100.00;101907.84;2080036;28;20285;-64
2024/03/17 04:00:21;;;;;;;8.47;5.60;;;;;;;8.19;100.00;101902.34;2082095;28;20370;-64
2024/03/17 04:01:22;;;;;;;7.85;5.05;;;;;;;8.22;100.00;101907.13;2079690;28;20192;-64
2024/03/17 04:02:23;;;;;;;9.43;5.30;;;;;;;8.21;100.00;101900.00;2080180;28;20278;-64
2024/03/17 04:03:23;;;;;;;10.13;5.70;;;;;;;8.26;100.00;101907.16;2084178;28;20448;-64
2024/03/17 04:04:24;;;;;;;10.60;5.50;;;;;;;8.22;100.00;101912.66;2083804;28;20782;-64
2024/03/17 04:05:24;;;;;;;10.20;5.00;;;;;;;8.21;100.00;101910.28;2081841;28;20253;-64
2024/03/17 04:06:25;;;;;;;9.87;5.67;;;;;;;8.20;100.00;101917.75;2085817;28;20178;-63
2024/03/17 04:07:26;;;;;;;10.53;5.50;;;;;;;8.21;100.00;101919.34;2085782;28;20642;-64
2024/03/17 04:08:27;;;;;;;9.35;5.15;;;;;;;8.18;100.00;101913.75;2080602;28;20316;-64
2024/03/17 04:09:27;;;;;;;9.47;5.40;;;;;;;8.19;100.00;101918.91;2080367;28;20197;-64
2024/03/17 04:10:28;;;;;;;8.23;5.30;;;;;;;8.17;100.00;101917.72;2079752;28;20194;-64
2024/03/17 04:11:28;;;;;;;10.50;5.77;;;;;;;8.14;100.00;101912.94;2080024;28;20192;-63
2024/03/17 04:12:30;;;;;;;7.57;4.67;;;;;;;8.14;100.00;101918.47;2081064;28;20204;-64
2024/03/17 04:13:33;;;;;;;10.40;6.13;;;;;;;8.17;100.00;101917.72;2082457;28;20648;-64
2024/03/17 04:14:33;;;;;;;9.40;5.20;;;;;;;8.22;100.00;101922.91;2082062;28;20868;-64
2024/03/17 04:15:34;;;;;;;8.27;4.53;;;;;;;8.23;100.00;101918.97;2081002;28;20429;-63
2024/03/17 04:16:35;;;;;;;9.40;5.13;;;;;;;8.19;100.00;101907.06;2084204;28;20191;-63
2024/03/17 04:17:37;;;;;;;9.17;4.17;;;;;;;8.26;100.00;101920.97;2080018;28;20551;-64
2024/03/17 04:18:37;;;;;;;10.55;5.28;;;;;;;8.28;100.00;101921.34;2080056;28;20563;-64
2024/03/17 04:19:38;;;;;;;10.40;5.87;;;;;;;8.31;100.00;101917.84;2080294;28;20191;-64
2024/03/17 04:20:40;;;;;;;13.63;4.47;;;;;;;8.25;100.00;101911.09;2080013;28;20193;-64
2024/03/17 04:21:41;;;;;;;9.00;5.13;;;;;;;8.29;100.00;101928.44;2081444;28;20281;-64
2024/03/17 04:22:43;;;;;;;11.47;4.70;;;;;;;8.07;100.00;101896.34;2080052;28;20186;-64
2024/03/17 04:23:43;;;;;;;8.60;5.30;;;;;;;7.27;100.00;101764.09;2080495;28;20270;-63
2024/03/17 04:24:48;;;;;;;8.30;5.07;;;;;;;8.33;100.00;101921.00;2088050;28;20440;-63
2024/03/17 04:25:51;;;;;;;11.15;4.97;;;;;;;8.34;100.00;101919.81;2086369;28;20217;-64
2024/03/17 04:26:52;;;;;;;7.22;4.85;;;;;;;8.38;100.00;101917.88;2083855;28;20192;-63
2024/03/17 04:27:52;;;;;;;10.60;5.17;;;;;;;8.35;100.00;101918.66;2081028;28;20228;-64
2024/03/17 04:28:53;;;;;;;7.83;4.70;;;;;;;8.38;100.00;101915.91;2080068;28;20208;-64
2024/03/17 04:29:54;;;;;;;9.73;5.03;;;;;;;8.40;100.00;101924.59;2079336;28;20206;-64
2024/03/17 04:31:08;;;;;;;8.90;4.97;;;;;;;8.42;100.00;101925.00;2080943;28;20685;-64
2024/03/17 04:32:11;;;;;;;8.80;4.90;;;;;;;8.44;100.00;101927.38;2079793;28;20250;-63
2024/03/17 04:33:12;;;;;;;8.93;4.90;;;;;;;7.69;100.00;101816.84;2079395;28;21002;-63
2024/03/17 04:34:12;;;;;;;8.73;4.63;;;;;;;8.36;100.00;101918.25;2084099;28;20196;-63
2024/03/17 04:35:13;;;;;;;9.17;5.27;;;;;;;8.40;100.00;101924.59;2078526;28;20432;-64
2024/03/17 04:36:14;;;;;;;12.23;5.03;;;;;;;7.26;100.00;101752.31;2080855;28;20180;-64
2024/03/17 04:37:15;;;;;;;6.63;4.30;;;;;;;8.33;100.00;101932.84;2086532;28;20566;-64
2024/03/17 04:38:19;;;;;;;9.40;4.97;;;;;;;8.26;100.00;101923.72;2081308;28;20199;-64
2024/03/17 04:39:20;;;;;;;10.85;6.00;;;;;;;8.29;100.00;101936.75;2079585;28;20441;-64
2024/03/17 04:40:20;;;;;;;8.60;5.40;;;;;;;8.28;100.00;101933.22;2082902;28;20324;-64
2024/03/17 04:41:21;;;;;;;8.73;5.70;;;;;;;8.24;100.00;101937.91;2087545;28;20214;-63
2024/03/17 04:42:21;;;;;;;9.37;5.50;;;;;;;8.23;100.00;101936.31;2082688;28;20755;-63
2024/03/17 04:43:22;;;;;;;8.17;5.07;;;;;;;8.26;100.00;101932.00;2080218;28;20181;-63
2024/03/17 04:44:23;;;;;;;9.00;5.17;;;;;;;7.72;100.00;101843.66;2079446;28;20188;-64